METAR Data
IDs: Format: Raw Decoded Include TAF

Data at: 2246 UTC 25 Oct 2021

KPKV 252235Z AUTO 16009KT 10SM CLR 31/23 A2991 RMK AO2 T03080229
KPKV 252215Z AUTO 17008KT 10SM CLR 31/23 A2991 RMK AO2 T03110233
KPKV 252155Z AUTO 15008KT 10SM CLR 31/23 A2991 RMK AO2 T03140234
KPKV 252135Z AUTO 17008KT 10SM SCT026 SCT030 SCT039 32/24 A2991 RMK AO2 T03170237
KPKV 252115Z AUTO 14008KT 10SM SCT024 SCT031 BKN037 32/24 A2991 RMK AO2 T03150239
KPKV 252055Z AUTO 12008KT 10SM CLR 31/24 A2991 RMK AO2 T03070238
KPKV 252035Z AUTO 13007KT 10SM CLR 32/24 A2991 RMK AO2 T03160238
KPKV 252015Z AUTO 12008KT 10SM CLR 32/24 A2991 RMK AO2 T03180243
KPKV 251955Z AUTO 11008KT 10SM CLR 32/24 A2992 RMK AO2 T03180240
KPKV 251935Z AUTO 13007KT 10SM SCT025 32/24 A2992 RMK AO2 T03200237
KPKV 251915Z AUTO 12004KT 10SM SCT025 32/24 A2993 RMK AO2 T03220235
KPKV 251855Z AUTO 12006KT 10SM BKN025 SCT031 32/24 A2994 RMK AO2 T03190241
KPKV 251835Z AUTO 00000KT 10SM SCT021 32/25 A2994 RMK AO2 T03160245
KPKV 251815Z AUTO 09005KT 10SM SCT019 SCT037 31/24 A2995 RMK AO2 T03110243
KPKV 251755Z AUTO 08005KT 10SM SCT037 31/25 A2996 RMK AO2 T03120245 10317 20232
KPKV 251735Z AUTO 09005KT 10SM SCT024 BKN037 32/24 A2997 RMK AO2 T03170239
KPKV 251715Z AUTO 16003KT 10SM SCT022 31/24 A2997 RMK AO2 T03080235
KPKV 251655Z AUTO 00000KT 10SM SCT020 30/24 A2998 RMK AO2 T02980240
KPKV 251635Z AUTO 22004KT 10SM SCT013 BKN018 29/25 A2998 RMK AO2 T02870247
KPKV 251615Z AUTO 00000KT 10SM BKN012 OVC021 27/25 A2998 RMK AO2 T02650251
KPKV 251555Z AUTO 00000KT 10SM SCT006 BKN017 OVC021 26/25 A2998 RMK AO2 T02600247
KPKV 251535Z AUTO 00000KT 10SM BKN006 BKN012 BKN021 26/25 A2998 RMK AO2 T02600247
KPKV 251515Z AUTO 00000KT 10SM SCT004 BKN008 BKN012 26/25 A2998 RMK AO2 T02620250
KPKV 251455Z AUTO 00000KT 2 1/2SM BR BKN002 OVC006 26/25 A2998 RMK AO2 VIS 1V5 T02600247
KPKV 251435Z AUTO 04003KT 1/2SM FG OVC005 26/25 A2998 RMK AO2 T02590246
KPKV 251415Z AUTO 00000KT 1/4SM FG OVC001 25/24 A2997 RMK AO2 T02500237
KPKV 251355Z AUTO 00000KT M1/4SM FG OVC001 25/24 A2997 RMK AO2 T02520239
KPKV 251335Z AUTO 00000KT M1/4SM FG OVC001 24/23 A2996 RMK AO2 T02430231
KPKV 251315Z AUTO 00000KT M1/4SM FG OVC001 24/23 A2994 RMK AO2 T02390226
KPKV 251255Z AUTO 00000KT 1/4SM FG OVC001 24/23 A2994 RMK AO2 T02370225
KPKV 251235Z AUTO 00000KT 1/2SM FG OVC001 23/22 A2993 RMK AO2 T02340222
KPKV 251220Z AUTO 00000KT 1/4SM FG OVC001 23/22 A2992 RMK AO2 T02320220
KPKV 251200Z AUTO 00000KT M1/4SM FG OVC001 23/22 A2992 RMK AO2
KPKV 251135Z AUTO 00000KT 3/4SM BR OVC001 23/22 A2991 RMK AO2 T02320220
KPKV 251121Z AUTO 00000KT 1/4SM FG OVC001 23/22 A2991 RMK AO2
KPKV 251100Z AUTO 00000KT 1/4SM FG OVC001 23/22 A2991 RMK AO2 T02310220
KPKV 251035Z AUTO 00000KT 1/2SM FG OVC001 23/22 A2991 RMK AO2 T02330220
KPKV 251015Z AUTO 00000KT 1/4SM FG OVC001 23/22 A2990 RMK AO2 T02330220
KPKV 250955Z AUTO 00000KT 1/4SM FG OVC001 24/23 A2990 RMK AO2 T02370225
KPKV 250935Z AUTO 00000KT 1/4SM FG OVC001 23/22 A2990 RMK AO2 T02320219
KPKV 250915Z AUTO 00000KT 1/2SM FG OVC001 24/23 A2990 RMK AO2 T02400227
KPKV 250855Z AUTO 00000KT 1/2SM FG OVC001 24/23 A2990 RMK AO2 T02410228
KPKV 250835Z AUTO 18004KT 1/2SM FG BKN001 OVC011 24/23 A2990 RMK AO2 T02380225
KPKV 250815Z AUTO 18003KT 3/4SM BR BKN001 BKN011 24/23 A2991 RMK AO2 T02410228
KPKV 250755Z AUTO 18003KT 1/2SM FG VV005 24/23 A2991 RMK AO2 T02440231
KPKV 250735Z AUTO 20003KT 1/2SM FG VV005 24/23 A2991 RMK AO2 T02400226
KPKV 250715Z AUTO 00000KT 1/2SM FG VV005 24/23 A2991 RMK AO2 T02440230
KPKV 250655Z AUTO 00000KT 1/2SM FG VV005 24/23 A2990 RMK AO2 T02430230
KPKV 250635Z AUTO 18003KT 1 1/4SM BR VV007 25/23 A2990 RMK AO2 T02450231
KPKV 250615Z AUTO 19003KT 1 1/4SM BR SCT001 25/23 A2990 RMK AO2 T02480234
KPKV 250555Z AUTO 19003KT 3/4SM BR SCT001 25/24 A2990 RMK AO2 T02490235 10273 20240 403220227
KPKV 250535Z AUTO 17004KT 2SM BR CLR 25/24 A2990 RMK AO2 T02510236
KPKV 250515Z AUTO 16004KT 1/2SM FG VV005 25/23 A2991 RMK AO2 T02470232
KPKV 250455Z AUTO 14003KT 1/2SM FG VV005 24/23 A2990 RMK AO2 T02400225
KPKV 250435Z AUTO 00000KT 1/2SM FG VV005 25/23 A2991 RMK AO2 VIS 1/2V5 T02490233
KPKV 250415Z AUTO 00000KT 2 1/2SM BR CLR 25/23 A2990 RMK AO2 VIS 3/4V5 T02500234
KPKV 250355Z AUTO 00000KT 5SM BR CLR 25/23 A2989 RMK AO2 T02490233
KPKV 250335Z AUTO 15003KT 3SM BR CLR 25/23 A2988 RMK AO2 T02500233
KPKV 250315Z AUTO 00000KT 10SM CLR 25/24 A2988 RMK AO2 T02520235
KPKV 250255Z AUTO 15004KT 10SM CLR 25/23 A2987 RMK AO2 T02500232
KPKV 250235Z AUTO 15004KT 10SM CLR 25/23 A2986 RMK AO2 T02480230
KPKV 250215Z AUTO 14004KT 10SM CLR 25/23 A2985 RMK AO2 T02470230
KPKV 250155Z AUTO 15004KT 10SM CLR 25/23 A2985 RMK AO2 T02510231
KPKV 250135Z AUTO 15004KT 10SM CLR 25/23 A2984 RMK AO2 T02520231
KPKV 250115Z AUTO 17003KT 10SM CLR 26/24 A2984 RMK AO2 T02570235
KPKV 250055Z AUTO 17004KT 10SM CLR 26/24 A2983 RMK AO2 T02610235
KPKV 250035Z AUTO 15005KT 10SM CLR 26/24 A2982 RMK AO2 T02630235
KPKV 250015Z AUTO 16007KT 10SM CLR 27/23 A2982 RMK AO2 T02680233
KPKV 242355Z AUTO 16005KT 10SM CLR 27/23 A2982 RMK AO2 T02730230 10322 20273
KPKV 242335Z AUTO 17006KT 10SM CLR 29/23 A2981 RMK AO2 T02850230
KPKV 242315Z AUTO 18004KT 10SM CLR 29/23 A2981 RMK AO2 T02930231
KPKV 242255Z AUTO 18008KT 10SM CLR 30/23 A2982 RMK AO2 T02980228
KPKV 242235Z AUTO 17007KT 140V200 10SM CLR 30/23 A2981 RMK AO2 T03020231
KPKV 242215Z AUTO 17008KT 10SM CLR 31/23 A2981 RMK AO2 T03070228
KPKV 242155Z AUTO 17009KT 10SM CLR 31/23 A2981 RMK AO2 T03090226
KPKV 242135Z AUTO 18009KT 10SM CLR 32/23 A2981 RMK AO2 T03150225
KPKV 242115Z AUTO 19008KT 10SM SCT035 SCT044 32/22 A2981 RMK AO2 T03160224
KPKV 242055Z AUTO 19006KT 10SM SCT035 SCT044 SCT065 31/22 A2982 RMK AO2 T03130222
KPKV 242035Z AUTO 18008KT 10SM SCT035 SCT050 SCT065 32/23 A2982 RMK AO2 T03170225
KPKV 242015Z AUTO 20007KT 10SM SCT033 32/22 A2982 RMK AO2 T03200222
KPKV 241955Z AUTO 15009KT 10SM SCT033 SCT042 32/23 A2982 RMK AO2 T03170225
KPKV 241935Z AUTO 16008KT 10SM BKN033 BKN040 32/23 A2982 RMK AO2 T03170231
KPKV 241915Z AUTO 20009KT 10SM SCT033 SCT047 SCT055 32/23 A2983 RMK AO2 T03200225
KPKV 241855Z AUTO 22008KT 10SM SCT033 BKN045 BKN055 32/23 A2983 RMK AO2 T03170230
KPKV 241835Z AUTO 15005KT 10SM SCT030 BKN036 BKN060 31/24 A2984 RMK AO2 T03110243
KPKV 241815Z AUTO 16006KT 10SM SCT029 BKN033 BKN043 32/24 A2985 RMK AO2 T03160238
KPKV 241755Z AUTO 15006KT 10SM SCT027 BKN033 BKN043 30/23 A2986 RMK AO2 T02990233 10314 20230
KPKV 241735Z AUTO 14005KT 10SM SCT027 SCT032 SCT038 30/23 A2986 RMK AO2 T02990232
KPKV 241715Z AUTO 15006KT 10SM SCT029 31/23 A2987 RMK AO2 T03080225
KPKV 241655Z AUTO 22005KT 10SM SCT023 SCT035 SCT045 30/23 A2987 RMK AO2 T02960234
KPKV 241635Z AUTO 22008KT 10SM BKN021 BKN034 BKN045 30/24 A2988 RMK AO2 T03000237
KPKV 241615Z AUTO 20003KT 10SM SCT021 BKN034 BKN043 30/24 A2988 RMK AO2 T02960237
KPKV 241555Z AUTO 18008KT 10SM SCT019 BKN031 BKN038 30/24 A2988 RMK AO2 T02950241
KPKV 241535Z AUTO 19006KT 10SM SCT014 BKN019 OVC033 29/24 A2988 RMK AO2 T02850242
KPKV 241515Z AUTO 17004KT 10SM SCT014 BKN023 28/24 A2988 RMK AO2 T02800242
KPKV 241455Z AUTO 19003KT 10SM SCT009 SCT024 SCT029 27/25 A2987 RMK AO2 T02700246
KPKV 241435Z AUTO 15004KT 10SM SCT023 SCT031 26/25 A2987 RMK AO2 T02620247
KPKV 241415Z AUTO 00000KT 7SM SCT018 BKN023 26/24 A2986 RMK AO2 T02560242
KPKV 241355Z AUTO 00000KT 5SM BR BKN018 25/24 A2985 RMK AO2 T02510237
KPKV 241335Z AUTO 00000KT 5SM BR CLR 24/23 A2984 RMK AO2 T02420229
KPKV 241315Z AUTO 08003KT 3SM BR 23/22 A2983 RMK AO2 SKY OBSCURED T02330219
KPKV 241255Z AUTO 09003KT 1/2SM FG BKN015 23/22 A2983 RMK AO2 T02330220
KPKV 241235Z AUTO 08003KT 1 3/4SM BR SCT009 BKN015 24/22 A2982 RMK AO2 T02360222
KPKV 241215Z AUTO 09003KT 4SM BR BKN011 24/22 A2982 RMK AO2 T02350221
KPKV 241155Z AUTO 10003KT 1 1/4SM BR BKN013 23/22 A2982 RMK AO2 70106 T02310215 10246 20227
KPKV 241135Z AUTO 08004KT 1/2SM FG OVC015 23/21 A2982 RMK AO2 T02270212
KPKV 241115Z AUTO 00000KT 1/2SM FG VV005 23/22 A2981 RMK AO2 T02320216
KPKV 241055Z AUTO 00000KT 3/4SM BR BKN016 23/22 A2981 RMK AO2 T02340218